Time;durP1;ratioP1;P1;durP2;ratioP2;P2;SDS_P1;SDS_P2;PMS_P1;PMS_P2;Temp;Humidity;BMP_temperature;BMP_pressure;BME280_temperature;BME280_humidity;BME280_pressure;Samples;Min_cycle;Max_cycle;Signal;HPM_P1;HPM_P2
2023/03/07 00:02:20;;;;;;;6.05;2.80;;;;;;;;;;4927919;28;20211;-67
2023/03/07 00:04:46;;;;;;;6.45;2.58;;;;;;;;;;4894098;28;20693;-67
2023/03/07 00:07:13;;;;;;;6.20;2.72;;;;;;;;;;4907401;28;20521;-66
2023/03/07 00:09:42;;;;;;;6.57;2.60;;;;;;;;;;4923167;28;20051;-65
2023/03/07 00:12:13;;;;;;;6.75;2.78;;;;;;;;;;4940159;28;20054;-66
2023/03/07 00:14:39;;;;;;;9.13;2.88;;;;;;;;;;4975641;28;20221;-67
2023/03/07 00:17:06;;;;;;;5.68;2.58;;;;;;;;;;4969644;28;20054;-65
2023/03/07 00:19:35;;;;;;;5.38;2.15;;;;;;;;;;4962424;28;20062;-68
2023/03/07 00:22:01;;;;;;;4.80;2.40;;;;;;;;;;4938641;28;20039;-67
2023/03/07 00:24:28;;;;;;;7.45;2.47;;;;;;;;;;4955732;28;20134;-68
2023/03/07 00:26:55;;;;;;;5.75;2.47;;;;;;;;;;4972082;28;20422;-68
2023/03/07 00:29:23;;;;;;;5.53;2.53;;;;;;;;;;4963389;28;20228;-68
2023/03/07 00:31:49;;;;;;;6.00;2.40;;;;;;;;;;4937496;28;20557;-66
2023/03/07 00:34:16;;;;;;;6.05;2.35;;;;;;;;;;4957409;28;20158;-67
2023/03/07 00:36:42;;;;;;;6.80;2.53;;;;;;;;;;4969892;28;20065;-68
2023/03/07 00:39:11;;;;;;;5.68;2.28;;;;;;;;;;4977604;28;20073;-66
2023/03/07 00:41:38;;;;;;;3.53;1.73;;;;;;;;;;4947589;28;20097;-68
2023/03/07 00:44:04;;;;;;;5.47;2.30;;;;;;;;;;4948058;28;20068;-69
2023/03/07 00:46:39;;;;;;;6.50;1.73;;;;;;;;;;4952953;28;20129;-66
2023/03/07 00:49:05;;;;;;;4.45;1.98;;;;;;;;;;4951215;28;20058;-67
2023/03/07 00:51:34;;;;;;;7.45;2.38;;;;;;;;;;4957062;28;20275;-67
2023/03/07 00:54:01;;;;;;;5.72;2.55;;;;;;;;;;4973812;28;20082;-67
2023/03/07 00:56:28;;;;;;;6.20;1.83;;;;;;;;;;4960799;28;20124;-68
2023/03/07 00:58:54;;;;;;;4.03;1.85;;;;;;;;;;4978215;28;20085;-67
2023/03/07 01:01:22;;;;;;;5.30;2.33;;;;;;;;;;4956699;28;20050;-68
2023/03/07 01:03:52;;;;;;;5.33;2.00;;;;;;;;;;4969588;28;21080;-68
2023/03/07 01:06:19;;;;;;;6.57;2.45;;;;;;;;;;4973547;28;20153;-68
2023/03/07 01:08:46;;;;;;;5.90;1.90;;;;;;;;;;4967973;28;20114;-68
2023/03/07 01:11:13;;;;;;;5.05;2.05;;;;;;;;;;4944708;28;20070;-66
2023/03/07 01:13:39;;;;;;;4.32;1.88;;;;;;;;;;4963341;28;20061;-65
2023/03/07 01:16:07;;;;;;;6.10;2.58;;;;;;;;;;4955984;28;20077;-69
2023/03/07 01:18:33;;;;;;;5.63;2.30;;;;;;;;;;4965989;28;20058;-66
2023/03/07 01:21:01;;;;;;;4.68;2.10;;;;;;;;;;4930578;28;20117;-67
2023/03/07 01:23:28;;;;;;;6.53;2.55;;;;;;;;;;4949525;28;20053;-68
2023/03/07 01:25:54;;;;;;;5.80;2.45;;;;;;;;;;4960202;28;20177;-66
2023/03/07 01:28:21;;;;;;;6.13;2.50;;;;;;;;;;4975553;28;20110;-67
2023/03/07 01:30:58;;;;;;;6.93;2.70;;;;;;;;;;4932566;28;20138;-68
2023/03/07 01:33:25;;;;;;;7.43;2.30;;;;;;;;;;4955522;28;20133;-67
2023/03/07 01:35:51;;;;;;;7.90;2.67;;;;;;;;;;4961496;28;20101;-67
2023/03/07 01:38:22;;;;;;;7.10;2.17;;;;;;;;;;4997366;28;20436;-67
2023/03/07 01:41:03;;;;;;;5.53;2.35;;;;;;;;;;4989125;28;20251;-71
2023/03/07 01:43:31;;;;;;;5.95;2.65;;;;;;;;;;4984017;28;20064;-69
2023/03/07 01:46:18;;;;;;;5.65;2.47;;;;;;;;;;4982138;28;20085;-69
2023/03/07 01:48:45;;;;;;;7.43;2.47;;;;;;;;;;4952496;28;20054;-69
2023/03/07 01:51:12;;;;;;;5.07;2.38;;;;;;;;;;4972516;28;20112;-69
2023/03/07 01:53:40;;;;;;;5.30;2.42;;;;;;;;;;4992373;28;20082;-70
2023/03/07 01:56:08;;;;;;;6.35;2.53;;;;;;;;;;4963405;28;20089;-70
2023/03/07 01:58:36;;;;;;;5.70;2.53;;;;;;;;;;4984475;28;20049;-70
2023/03/07 02:01:05;;;;;;;6.20;2.33;;;;;;;;;;4961526;28;20064;-67
2023/03/07 02:03:37;;;;;;;4.90;2.13;;;;;;;;;;4985821;28;20070;-67
2023/03/07 02:06:07;;;;;;;6.18;2.33;;;;;;;;;;4967275;28;20050;-65
2023/03/07 02:08:34;;;;;;;5.18;2.35;;;;;;;;;;4941038;28;20149;-66
2023/03/07 02:11:02;;;;;;;5.00;2.28;;;;;;;;;;4947716;28;20089;-68
2023/03/07 02:13:29;;;;;;;6.77;2.30;;;;;;;;;;4979905;28;20057;-66
2023/03/07 02:15:56;;;;;;;5.55;2.13;;;;;;;;;;4953269;28;20170;-68
2023/03/07 02:18:32;;;;;;;6.20;2.08;;;;;;;;;;4957079;28;20127;-68
2023/03/07 02:21:01;;;;;;;4.93;2.05;;;;;;;;;;4987250;28;20050;-68
2023/03/07 02:23:31;;;;;;;6.03;2.05;;;;;;;;;;4968993;28;20115;-67
2023/03/07 02:25:59;;;;;;;6.10;2.08;;;;;;;;;;4957928;28;20317;-67
2023/03/07 02:28:28;;;;;;;5.88;2.22;;;;;;;;;;4990828;28;20147;-67
2023/03/07 02:30:55;;;;;;;7.78;2.20;;;;;;;;;;4961998;28;20049;-69
2023/03/07 02:33:23;;;;;;;5.45;2.00;;;;;;;;;;4961129;28;20058;-68
2023/03/07 02:35:54;;;;;;;4.32;2.17;;;;;;;;;;4978115;28;20054;-68
2023/03/07 02:38:24;;;;;;;6.05;1.75;;;;;;;;;;4972704;28;20137;-68
2023/03/07 02:40:52;;;;;;;5.18;2.40;;;;;;;;;;4949030;28;20177;-67
2023/03/07 02:43:18;;;;;;;4.80;1.95;;;;;;;;;;4959447;28;20097;-68
2023/03/07 02:45:46;;;;;;;5.22;2.20;;;;;;;;;;4963610;28;20090;-67
2023/03/07 02:48:15;;;;;;;7.10;2.00;;;;;;;;;;4968111;28;20141;-66
2023/03/07 02:50:41;;;;;;;7.68;2.20;;;;;;;;;;4953068;28;20065;-68
2023/03/07 02:53:08;;;;;;;3.58;1.73;;;;;;;;;;4965613;28;20054;-66
2023/03/07 02:55:34;;;;;;;4.28;1.83;;;;;;;;;;4999240;28;20062;-67
2023/03/07 02:58:03;;;;;;;5.93;2.30;;;;;;;;;;4965455;28;20054;-67
2023/03/07 03:00:33;;;;;;;3.95;1.95;;;;;;;;;;4989809;28;20069;-68
2023/03/07 03:03:02;;;;;;;5.78;2.10;;;;;;;;;;4881513;28;20054;-67
2023/03/07 03:05:28;;;;;;;6.50;2.83;;;;;;;;;;4981708;28;20540;-67
2023/03/07 03:07:58;;;;;;;3.88;1.80;;;;;;;;;;4960508;28;20092;-68
2023/03/07 03:10:24;;;;;;;4.93;2.13;;;;;;;;;;4973222;28;20065;-67
2023/03/07 03:12:51;;;;;;;4.72;1.92;;;;;;;;;;4947059;28;20058;-67
2023/03/07 03:15:17;;;;;;;8.32;1.77;;;;;;;;;;4979051;28;20054;-66
2023/03/07 03:17:44;;;;;;;5.63;2.45;;;;;;;;;;4986263;28;20062;-68
2023/03/07 03:20:13;;;;;;;4.80;2.60;;;;;;;;;;4982502;28;20046;-68
2023/03/07 03:22:41;;;;;;;6.13;1.50;;;;;;;;;;4972958;28;20157;-67
2023/03/07 03:25:12;;;;;;;9.07;2.00;;;;;;;;;;4968151;28;20134;-67
2023/03/07 03:27:40;;;;;;;4.20;1.75;;;;;;;;;;4959585;28;20063;-68
2023/03/07 03:30:07;;;;;;;3.83;1.63;;;;;;;;;;4994280;28;20152;-68
2023/03/07 03:32:34;;;;;;;5.07;2.05;;;;;;;;;;4946614;28;20050;-68
2023/03/07 03:35:00;;;;;;;4.60;2.17;;;;;;;;;;4988450;28;20126;-66
2023/03/07 03:37:30;;;;;;;4.07;1.60;;;;;;;;;;4980520;28;20050;-66
2023/03/07 03:39:57;;;;;;;3.92;1.83;;;;;;;;;;4980706;28;20054;-67
2023/03/07 03:42:26;;;;;;;2.85;1.70;;;;;;;;;;4966644;28;20105;-67
2023/03/07 03:44:55;;;;;;;4.57;1.92;;;;;;;;;;4936688;28;20134;-67
2023/03/07 03:47:21;;;;;;;4.45;1.88;;;;;;;;;;4973779;28;20061;-67
2023/03/07 03:49:48;;;;;;;6.75;2.17;;;;;;;;;;4972661;28;20053;-66
2023/03/07 03:52:14;;;;;;;4.88;2.20;;;;;;;;;;4937757;28;20056;-68
2023/03/07 03:54:42;;;;;;;3.95;1.75;;;;;;;;;;4953464;28;20271;-68
2023/03/07 03:57:09;;;;;;;7.37;2.07;;;;;;;;;;4993366;28;20092;-65
2023/03/07 03:59:36;;;;;;;4.65;2.15;;;;;;;;;;4987148;28;20313;-68
2023/03/07 04:02:05;;;;;;;4.20;1.73;;;;;;;;;;4949221;28;20109;-68
2023/03/07 04:04:31;;;;;;;3.67;1.92;;;;;;;;;;4969506;28;20060;-68
2023/03/07 04:06:59;;;;;;;5.63;2.05;;;;;;;;;;4943168;28;20062;-67
2023/03/07 04:09:26;;;;;;;5.22;1.92;;;;;;;;;;4955542;28;20116;-68
2023/03/07 04:11:54;;;;;;;5.40;2.17;;;;;;;;;;4955708;28;20050;-68
2023/03/07 04:14:23;;;;;;;7.15;2.20;;;;;;;;;;4938325;28;20078;-69
2023/03/07 04:16:49;;;;;;;6.28;2.30;;;;;;;;;;4974616;28;20552;-68
2023/03/07 04:19:16;;;;;;;4.82;1.77;;;;;;;;;;4982928;28;20145;-66
2023/03/07 04:21:43;;;;;;;5.35;1.88;;;;;;;;;;4970699;28;20072;-67
2023/03/07 04:24:11;;;;;;;5.25;2.42;;;;;;;;;;4972556;28;20065;-66
2023/03/07 04:26:37;;;;;;;4.93;2.20;;;;;;;;;;4944702;28;20231;-68
2023/03/07 04:29:10;;;;;;;7.07;2.55;;;;;;;;;;4945475;28;20054;-67
2023/03/07 04:31:36;;;;;;;5.22;1.92;;;;;;;;;;4951374;28;20054;-68
2023/03/07 04:34:04;;;;;;;3.70;1.77;;;;;;;;;;4955031;28;20097;-66
2023/03/07 04:36:31;;;;;;;6.30;2.05;;;;;;;;;;4953990;28;20061;-67
2023/03/07 04:38:57;;;;;;;6.00;2.10;;;;;;;;;;4951543;28;20062;-66
2023/03/07 04:41:26;;;;;;;4.93;2.10;;;;;;;;;;4943318;28;20349;-66
2023/03/07 04:43:53;;;;;;;7.97;2.22;;;;;;;;;;4970638;28;20092;-69
2023/03/07 04:46:24;;;;;;;5.10;2.13;;;;;;;;;;4980784;28;20154;-68
2023/03/07 04:48:50;;;;;;;5.78;1.95;;;;;;;;;;4958221;28;20066;-67
2023/03/07 04:51:17;;;;;;;8.60;2.03;;;;;;;;;;4971365;28;20050;-66
2023/03/07 04:53:43;;;;;;;5.57;2.20;;;;;;;;;;4939581;28;20078;-67
2023/03/07 04:56:10;;;;;;;4.95;2.30;;;;;;;;;;4947915;28;20065;-66
2023/03/07 04:58:37;;;;;;;3.90;1.90;;;;;;;;;;4952977;28;20054;-68
2023/03/07 05:01:04;;;;;;;6.18;2.03;;;;;;;;;;4973638;28;20070;-67
2023/03/07 05:03:32;;;;;;;4.00;1.85;;;;;;;;;;4957987;28;20046;-67
2023/03/07 05:06:03;;;;;;;5.10;1.97;;;;;;;;;;4963251;28;20081;-69
2023/03/07 05:08:31;;;;;;;4.30;1.73;;;;;;;;;;4958497;28;20325;-70
2023/03/07 05:10:57;;;;;;;4.32;2.05;;;;;;;;;;4968793;28;20108;-68
2023/03/07 05:13:24;;;;;;;4.47;1.88;;;;;;;;;;4895376;28;20047;-67
2023/03/07 05:15:51;;;;;;;6.63;2.08;;;;;;;;;;4949816;28;20055;-68
2023/03/07 05:18:18;;;;;;;4.82;2.20;;;;;;;;;;4961121;28;20074;-66
2023/03/07 05:20:47;;;;;;;3.88;1.73;;;;;;;;;;4952983;28;20041;-69
2023/03/07 05:23:14;;;;;;;4.30;1.45;;;;;;;;;;4927276;28;20255;-67
2023/03/07 05:25:42;;;;;;;6.28;2.15;;;;;;;;;;4960310;28;20089;-68
2023/03/07 05:28:09;;;;;;;5.15;2.05;;;;;;;;;;4982580;28;20125;-66
2023/03/07 05:30:35;;;;;;;7.00;1.73;;;;;;;;;;4954200;28;20106;-67
2023/03/07 05:33:02;;;;;;;7.07;2.08;;;;;;;;;;4962685;28;20046;-67
2023/03/07 05:35:31;;;;;;;3.88;2.15;;;;;;;;;;4953816;28;20043;-67
2023/03/07 05:37:59;;;;;;;4.68;1.92;;;;;;;;;;4955801;28;20054;-68
2023/03/07 05:40:27;;;;;;;3.25;1.80;;;;;;;;;;4980726;28;20077;-70
2023/03/07 05:42:53;;;;;;;3.97;1.58;;;;;;;;;;4949908;28;20061;-66
2023/03/07 05:45:20;;;;;;;4.43;1.60;;;;;;;;;;4948536;28;20046;-68
2023/03/07 05:47:46;;;;;;;3.42;1.80;;;;;;;;;;4966492;28;20129;-67
2023/03/07 05:50:13;;;;;;;4.55;2.03;;;;;;;;;;4958425;28;20088;-67
2023/03/07 05:52:40;;;;;;;3.97;2.00;;;;;;;;;;4946940;28;20061;-67
2023/03/07 05:55:10;;;;;;;4.30;1.83;;;;;;;;;;4969295;28;20188;-66
2023/03/07 05:57:37;;;;;;;4.13;1.70;;;;;;;;;;4956507;28;20105;-68
2023/03/07 06:00:10;;;;;;;3.90;1.80;;;;;;;;;;4947372;28;20050;-67
2023/03/07 06:02:36;;;;;;;4.07;1.77;;;;;;;;;;4918532;28;20050;-67
2023/03/07 06:05:05;;;;;;;4.63;1.75;;;;;;;;;;4984394;28;20128;-67
2023/03/07 06:07:31;;;;;;;5.63;1.95;;;;;;;;;;4947950;28;20049;-68
2023/03/07 06:09:58;;;;;;;4.95;1.88;;;;;;;;;;4999887;28;20058;-68
2023/03/07 06:12:28;;;;;;;4.03;1.63;;;;;;;;;;4952292;28;20054;-69
2023/03/07 06:15:07;;;;;;;5.25;2.08;;;;;;;;;;4992471;28;20094;-68
2023/03/07 06:17:38;;;;;;;3.92;1.60;;;;;;;;;;4989996;28;20053;-69
2023/03/07 06:20:07;;;;;;;3.40;1.45;;;;;;;;;;5009749;28;20117;-68
2023/03/07 06:22:36;;;;;;;4.50;2.00;;;;;;;;;;4951425;28;20077;-69
2023/03/07 06:25:03;;;;;;;5.57;1.60;;;;;;;;;;4976689;28;20059;-70
2023/03/07 06:27:32;;;;;;;;;;;;;;;;;;4925251;28;22175;-69
2023/03/07 06:30:00;;;;;;;4.88;1.30;;;;;;;;;;4933639;28;19929;-69
2023/03/07 06:32:34;;;;;;;3.83;1.48;;;;;;;;;;4926059;28;20078;-69
2023/03/07 06:35:01;;;;;;;5.95;1.55;;;;;;;;;;4947749;28;20148;-69
2023/03/07 06:37:29;;;;;;;4.93;1.77;;;;;;;;;;4954440;28;20057;-69
2023/03/07 06:39:57;;;;;;;4.20;1.10;;;;;;;;;;4948699;28;20257;-68
2023/03/07 06:42:29;;;;;;;4.78;1.27;;;;;;;;;;4915626;28;20132;-68
2023/03/07 06:44:56;;;;;;;2.15;1.00;;;;;;;;;;4897005;28;20070;-68
2023/03/07 06:47:24;;;;;;;2.53;0.98;;;;;;;;;;4959149;28;20054;-67
2023/03/07 06:49:51;;;;;;;3.17;1.23;;;;;;;;;;4919286;28;20110;-67
2023/03/07 06:52:17;;;;;;;3.15;1.30;;;;;;;;;;4915379;28;20048;-68
2023/03/07 06:54:44;;;;;;;2.45;1.00;;;;;;;;;;4890848;28;20155;-68
2023/03/07 06:57:10;;;;;;;3.15;1.20;;;;;;;;;;4920070;28;20102;-67
2023/03/07 06:59:40;;;;;;;3.40;1.05;;;;;;;;;;4945706;28;20058;-68
2023/03/07 07:02:07;;;;;;;2.72;1.15;;;;;;;;;;4956675;28;20085;-67
2023/03/07 07:04:39;;;;;;;4.63;1.20;;;;;;;;;;4945342;28;20081;-67
2023/03/07 07:07:09;;;;;;;2.53;1.13;;;;;;;;;;4942966;28;20108;-67
2023/03/07 07:09:36;;;;;;;3.20;1.30;;;;;;;;;;4947278;28;20057;-67
2023/03/07 07:12:05;;;;;;;3.88;1.08;;;;;;;;;;4952796;28;20070;-67
2023/03/07 07:14:33;;;;;;;3.08;0.90;;;;;;;;;;4939966;28;20046;-69
2023/03/07 07:16:59;;;;;;;4.32;0.95;;;;;;;;;;4961976;28;20077;-67
2023/03/07 07:19:26;;;;;;;1.80;0.90;;;;;;;;;;4927183;28;20051;-67
2023/03/07 07:21:57;;;;;;;3.25;1.10;;;;;;;;;;4928011;28;20073;-67
2023/03/07 07:24:23;;;;;;;2.55;0.90;;;;;;;;;;4882824;28;20281;-69
2023/03/07 07:26:50;;;;;;;3.28;1.15;;;;;;;;;;4961453;28;20158;-68
2023/03/07 07:29:17;;;;;;;3.47;1.00;;;;;;;;;;4946130;28;20058;-67
2023/03/07 07:31:43;;;;;;;1.95;0.65;;;;;;;;;;4935705;28;20051;-68
2023/03/07 07:34:10;;;;;;;2.17;0.85;;;;;;;;;;4978837;28;20063;-67
2023/03/07 07:36:39;;;;;;;2.20;0.90;;;;;;;;;;4938339;28;20061;-68
2023/03/07 07:39:09;;;;;;;2.15;0.82;;;;;;;;;;4961464;28;20055;-67
2023/03/07 07:41:38;;;;;;;1.65;0.90;;;;;;;;;;4977657;28;20054;-68
2023/03/07 07:44:05;;;;;;;4.25;1.17;;;;;;;;;;4940641;28;20054;-69
2023/03/07 07:46:32;;;;;;;1.33;0.75;;;;;;;;;;4965382;28;20042;-69
2023/03/07 07:49:03;;;;;;;0.93;0.52;;;;;;;;;;4983248;28;20076;-68
2023/03/07 07:51:30;;;;;;;3.00;0.60;;;;;;;;;;4952687;28;20050;-69
2023/03/07 07:57:15;;;;;;;1.92;1.00;;;;;;;;;;4973594;28;20051;-70
2023/03/07 07:59:44;;;;;;;2.70;0.80;;;;;;;;;;4974154;28;20066;-70
2023/03/07 08:02:12;;;;;;;1.33;0.73;;;;;;;;;;4949040;28;20086;-69
2023/03/07 08:04:39;;;;;;;3.08;0.70;;;;;;;;;;4904345;28;20047;-69
2023/03/07 08:07:06;;;;;;;1.60;0.70;;;;;;;;;;4982987;28;20053;-69
2023/03/07 08:09:34;;;;;;;2.55;0.82;;;;;;;;;;4951314;28;20066;-68
2023/03/07 08:12:02;;;;;;;2.65;1.02;;;;;;;;;;4932754;28;20058;-68
2023/03/07 08:14:32;;;;;;;0.82;0.55;;;;;;;;;;4929068;28;20102;-68
2023/03/07 08:17:14;;;;;;;3.25;1.00;;;;;;;;;;4944141;28;20054;-69
2023/03/07 08:19:41;;;;;;;1.98;1.00;;;;;;;;;;4941288;28;20170;-69
2023/03/07 08:22:28;;;;;;;4.20;1.35;;;;;;;;;;4925577;28;20146;-68
2023/03/07 08:24:57;;;;;;;5.63;1.00;;;;;;;;;;4895683;28;20266;-69
2023/03/07 08:27:27;;;;;;;2.47;0.80;;;;;;;;;;4894009;28;20138;-69
2023/03/07 08:29:59;;;;;;;2.65;1.08;;;;;;;;;;4876290;29;20059;-70
2023/03/07 08:32:31;;;;;;;1.65;0.90;;;;;;;;;;4934172;28;20069;-69
2023/03/07 08:35:00;;;;;;;1.20;0.70;;;;;;;;;;4948670;28;20082;-69
2023/03/07 08:37:27;;;;;;;3.15;1.10;;;;;;;;;;4953853;28;20154;-69
2023/03/07 08:40:00;;;;;;;3.35;1.15;;;;;;;;;;4962819;28;20054;-70
2023/03/07 08:42:29;;;;;;;3.25;1.00;;;;;;;;;;4970795;28;20051;-69
2023/03/07 08:45:08;;;;;;;3.35;1.08;;;;;;;;;;4908068;28;20051;-69
2023/03/07 08:47:34;;;;;;;;;;;;;;;;;;4938774;28;20117;-69
2023/03/07 08:50:00;;;;;;;2.95;0.82;;;;;;;;;;4910814;28;20319;-71
2023/03/07 08:52:27;;;;;;;2.05;1.00;;;;;;;;;;4947466;28;20173;-69
2023/03/07 08:54:53;;;;;;;1.83;0.77;;;;;;;;;;4935109;28;20047;-70
2023/03/07 08:57:20;;;;;;;1.85;0.80;;;;;;;;;;4964835;28;20235;-70
2023/03/07 08:59:47;;;;;;;3.17;0.95;;;;;;;;;;4961875;28;20164;-69
2023/03/07 09:02:15;;;;;;;1.83;0.90;;;;;;;;;;4940850;28;20066;-70
2023/03/07 09:04:44;;;;;;;1.40;0.70;;;;;;;;;;4948531;28;20399;-69
2023/03/07 09:07:21;;;;;;;;;;;;;;;;;;;;;
2023/03/07 09:09:52;;;;;;;1.77;0.80;;;;;;;;;;4992105;28;20105;-69
2023/03/07 09:12:19;;;;;;;2.15;1.20;;;;;;;;;;4954030;28;20065;-70
2023/03/07 09:14:45;;;;;;;2.85;1.27;;;;;;;;;;4895493;28;20154;-70
2023/03/07 09:17:34;;;;;;;1.75;1.00;;;;;;;;;;4876353;29;20066;-70
2023/03/07 09:20:03;;;;;;;2.17;0.75;;;;;;;;;;4891576;28;20242;-69
2023/03/07 09:22:31;;;;;;;2.45;1.00;;;;;;;;;;4896526;28;20157;-71
2023/03/07 09:24:59;;;;;;;2.35;1.05;;;;;;;;;;4896860;28;20055;-70
2023/03/07 09:27:26;;;;;;;2.60;1.00;;;;;;;;;;4934254;28;20058;-71
2023/03/07 09:29:55;;;;;;;3.95;1.20;;;;;;;;;;4935607;28;20128;-71
2023/03/07 09:32:26;;;;;;;2.65;1.30;;;;;;;;;;4935931;28;20063;-69
2023/03/07 09:35:07;;;;;;;4.57;1.15;;;;;;;;;;4912416;28;20055;-70
2023/03/07 09:37:40;;;;;;;2.78;1.15;;;;;;;;;;4924448;28;20059;-70
2023/03/07 09:40:07;;;;;;;1.90;1.07;;;;;;;;;;4947657;28;20058;-69
2023/03/07 09:42:39;;;;;;;2.88;1.15;;;;;;;;;;4954159;28;20364;-69
2023/03/07 09:45:19;;;;;;;2.65;1.10;;;;;;;;;;4963392;28;20170;-69
2023/03/07 09:48:06;;;;;;;3.20;1.15;;;;;;;;;;4956744;28;20085;-68
2023/03/07 09:50:40;;;;;;;3.28;1.30;;;;;;;;;;4926981;28;20213;-69
2023/03/07 09:53:16;;;;;;;2.65;1.27;;;;;;;;;;4971782;28;20076;-68
2023/03/07 09:55:42;;;;;;;2.97;1.10;;;;;;;;;;4949210;28;20054;-68
2023/03/07 09:58:15;;;;;;;2.97;1.30;;;;;;;;;;4967034;28;20085;-70
2023/03/07 10:00:44;;;;;;;3.00;1.35;;;;;;;;;;4957035;28;20045;-70
2023/03/07 10:03:17;;;;;;;3.42;1.38;;;;;;;;;;4932288;28;20496;-70
2023/03/07 10:55:46;;;;;;;3.83;0.85;;;;;;;;;;6040035;22;1289918;-69
2023/03/07 10:58:14;;;;;;;1.23;0.80;;;;;;;;;;6026194;23;20030;-69
2023/03/07 11:00:43;;;;;;;2.67;1.02;;;;;;;;;;6029399;23;20025;-70
2023/03/07 11:03:36;;;;;;;1.70;0.93;;;;;;;;;;6105326;22;20028;-69
2023/03/07 11:06:17;;;;;;;3.88;1.13;;;;;;;;;;6035474;23;20030;-69
2023/03/07 11:08:45;;;;;;;4.43;1.15;;;;;;;;;;6044959;22;20030;-69
2023/03/07 11:11:37;;;;;;;2.83;1.05;;;;;;;;;;6063350;23;20048;-70
2023/03/07 11:20:27;;;;;;;4.40;0.80;;;;;;;;;;6038129;23;20032;-69
2023/03/07 11:50:52;;;;;;;3.97;1.40;;;;;;;;;;6116587;22;2331391;-70
2023/03/07 11:53:49;;;;;;;2.50;1.10;;;;;;;;;;5962911;23;20034;-68
2023/03/07 11:56:36;;;;;;;;;;;;;;;;;;;;;
2023/03/07 11:59:27;;;;;;;1.80;0.90;;;;;;;;;;5919524;23;20106;-68
2023/03/07 12:02:07;;;;;;;3.13;1.10;;;;;;;;;;5910119;24;20024;-68
2023/03/07 12:05:06;;;;;;;2.50;1.30;;;;;;;;;;5946214;23;20119;-68
2023/03/07 12:07:53;;;;;;;2.83;1.17;;;;;;;;;;5971580;23;20035;-68
2023/03/07 12:10:35;;;;;;;2.25;0.90;;;;;;;;;;6046898;23;20061;-69
2023/03/07 12:13:08;;;;;;;2.75;1.13;;;;;;;;;;6103261;23;20018;-68
2023/03/07 12:15:48;;;;;;;2.25;0.98;;;;;;;;;;5996583;23;20035;-69
2023/03/07 12:18:30;;;;;;;2.85;0.98;;;;;;;;;;6058262;23;20141;-68
2023/03/07 12:21:04;;;;;;;1.67;0.85;;;;;;;;;;6085108;23;20025;-69
2023/03/07 12:23:47;;;;;;;3.35;1.27;;;;;;;;;;6037722;23;20030;-69
2023/03/07 12:26:19;;;;;;;2.40;0.90;;;;;;;;;;6089056;23;20025;-69
2023/03/07 12:28:49;;;;;;;2.88;1.10;;;;;;;;;;6066599;23;20026;-69
2023/03/07 12:31:37;;;;;;;2.45;1.10;;;;;;;;;;6109304;23;20030;-69
2023/03/07 12:34:07;;;;;;;2.50;1.00;;;;;;;;;;5998405;23;20029;-69
2023/03/07 12:36:38;;;;;;;3.53;1.15;;;;;;;;;;6088223;23;20469;-69
2023/03/07 12:39:14;;;;;;;3.33;1.20;;;;;;;;;;6053388;23;20026;-68
2023/03/07 12:41:45;;;;;;;1.92;0.90;;;;;;;;;;6056819;23;20112;-69
2023/03/07 12:44:16;;;;;;;1.25;0.70;;;;;;;;;;6114070;23;20025;-69
2023/03/07 12:46:46;;;;;;;1.45;0.80;;;;;;;;;;5988903;23;20614;-69
2023/03/07 12:49:16;;;;;;;3.22;1.00;;;;;;;;;;5995905;23;20377;-69
2023/03/07 12:51:47;;;;;;;1.40;0.90;;;;;;;;;;6027902;23;20033;-69
2023/03/07 12:54:21;;;;;;;2.78;1.00;;;;;;;;;;6072190;23;20034;-69
2023/03/07 12:56:52;;;;;;;1.58;0.85;;;;;;;;;;5970523;23;20030;-70
2023/03/07 12:59:20;;;;;;;4.18;0.90;;;;;;;;;;5994854;23;20028;-69
2023/03/07 13:01:48;;;;;;;3.33;0.85;;;;;;;;;;6014206;23;20026;-70
2023/03/07 13:04:19;;;;;;;2.17;1.00;;;;;;;;;;6027205;23;20023;-70
2023/03/07 13:06:47;;;;;;;1.42;0.75;;;;;;;;;;5954691;23;20325;-69
2023/03/07 13:09:24;;;;;;;3.03;1.10;;;;;;;;;;6018321;23;20027;-69
2023/03/07 13:12:24;;;;;;;1.23;0.75;;;;;;;;;;6001575;23;20050;-69
2023/03/07 13:14:58;;;;;;;2.55;0.80;;;;;;;;;;5978123;23;20040;-68
2023/03/07 13:17:58;;;;;;;2.30;0.80;;;;;;;;;;6056241;23;20053;-68
2023/03/07 13:20:38;;;;;;;0.95;0.50;;;;;;;;;;5943657;23;20042;-68
2023/03/07 13:23:25;;;;;;;8.23;0.98;;;;;;;;;;6035824;23;20037;-68
2023/03/07 13:26:19;;;;;;;1.77;0.80;;;;;;;;;;6017363;23;20072;-68
2023/03/07 13:28:51;;;;;;;1.02;0.60;;;;;;;;;;6002355;23;21264;-68
2023/03/07 13:31:35;;;;;;;1.38;0.60;;;;;;;;;;6019059;23;20125;-68
2023/03/07 13:34:26;;;;;;;1.17;0.60;;;;;;;;;;6041230;23;20503;-68
2023/03/07 13:36:52;;;;;;;1.77;0.88;;;;;;;;;;5969649;23;20026;-68
2023/03/07 13:39:38;;;;;;;2.50;0.90;;;;;;;;;;6007720;23;20058;-68
2023/03/07 13:42:06;;;;;;;1.48;0.70;;;;;;;;;;5991460;23;20474;-68
2023/03/07 13:44:39;;;;;;;3.22;1.20;;;;;;;;;;5981610;23;20027;-69
2023/03/07 13:47:25;;;;;;;1.77;0.85;;;;;;;;;;6008349;23;20031;-67
2023/03/07 13:53:06;;;;;;;1.20;0.70;;;;;;;;;;6013517;23;20034;-68
2023/03/07 13:55:51;;;;;;;1.60;0.70;;;;;;;;;;6044852;23;20348;-68
2023/03/07 13:58:32;;;;;;;2.20;0.70;;;;;;;;;;6035613;23;20350;-67
2023/03/07 14:04:06;;;;;;;2.60;0.88;;;;;;;;;;6011360;23;20106;-68
2023/03/07 14:06:46;;;;;;;3.50;0.60;;;;;;;;;;5963756;23;20039;-68
2023/03/07 14:19:55;;;;;;;2.05;0.70;;;;;;;;;;5028682;27;20562;-70
2023/03/07 14:22:49;;;;;;;2.72;0.80;;;;;;;;;;4924562;28;20465;-69
2023/03/07 14:25:30;;;;;;;1.65;0.70;;;;;;;;;;4905702;28;20074;-67
2023/03/07 14:30:38;;;;;;;1.70;0.70;;;;;;;;;;4845528;28;20047;-68
2023/03/07 14:33:15;;;;;;;2.40;0.90;;;;;;;;;;4900637;29;20546;-67
2023/03/07 14:39:22;;;;;;;;;;;;;;;;;;;;;
2023/03/07 14:42:08;;;;;;;1.75;0.70;;;;;;;;;;4848861;29;20064;-69
2023/03/07 14:45:17;;;;;;;2.13;0.80;;;;;;;;;;4847450;29;20087;-69
2023/03/07 14:48:00;;;;;;;1.77;0.57;;;;;;;;;;4850044;29;20144;-69
2023/03/07 14:50:42;;;;;;;1.75;0.68;;;;;;;;;;4890663;28;20067;-69
2023/03/07 14:53:27;;;;;;;1.15;0.52;;;;;;;;;;4918060;28;20198;-69
2023/03/07 14:56:11;;;;;;;3.38;0.50;;;;;;;;;;4907110;28;20138;-69
2023/03/07 14:59:00;;;;;;;2.65;0.60;;;;;;;;;;4879386;28;20076;-69
2023/03/07 15:01:30;;;;;;;2.67;0.70;;;;;;;;;;4916563;28;20151;-69
2023/03/07 15:04:02;;;;;;;1.75;0.70;;;;;;;;;;4890418;28;20052;-69
2023/03/07 15:06:44;;;;;;;0.60;0.40;;;;;;;;;;4861296;28;20064;-69
2023/03/07 15:09:19;;;;;;;2.00;0.50;;;;;;;;;;4924442;28;20115;-68
2023/03/07 15:11:52;;;;;;;1.70;0.50;;;;;;;;;;4985028;28;20104;-69
2023/03/07 15:14:32;;;;;;;2.88;0.80;;;;;;;;;;4988697;28;20049;-69
2023/03/07 15:17:02;;;;;;;3.20;1.05;;;;;;;;;;4968253;28;20197;-69
2023/03/07 15:19:31;;;;;;;1.77;0.70;;;;;;;;;;4928116;28;20054;-68
2023/03/07 15:22:03;;;;;;;1.95;0.90;;;;;;;;;;4980386;28;20108;-68
2023/03/07 15:24:39;;;;;;;1.95;0.80;;;;;;;;;;4967389;28;20137;-70
2023/03/07 15:27:09;;;;;;;2.00;0.95;;;;;;;;;;4960743;28;20428;-68
2023/03/07 15:29:38;;;;;;;1.92;1.00;;;;;;;;;;4997514;28;20081;-68
2023/03/07 15:32:29;;;;;;;3.92;1.08;;;;;;;;;;4972749;28;20049;-68
2023/03/07 15:34:58;;;;;;;2.33;0.90;;;;;;;;;;5004066;28;20049;-69
2023/03/07 15:37:34;;;;;;;2.05;0.90;;;;;;;;;;4955015;28;20057;-69
2023/03/07 15:40:14;;;;;;;2.22;0.77;;;;;;;;;;4988424;28;20049;-69
2023/03/07 15:42:54;;;;;;;2.08;0.80;;;;;;;;;;4998186;28;20057;-70
2023/03/07 15:45:29;;;;;;;2.17;0.80;;;;;;;;;;4966871;28;20065;-69
2023/03/07 15:48:02;;;;;;;1.60;0.70;;;;;;;;;;4965711;28;20085;-69
2023/03/07 15:50:32;;;;;;;1.33;0.70;;;;;;;;;;4985238;28;20053;-69
2023/03/07 15:53:06;;;;;;;2.10;0.80;;;;;;;;;;4980542;28;20046;-69
2023/03/07 15:55:33;;;;;;;1.50;0.68;;;;;;;;;;4992715;28;20094;-68
2023/03/07 15:58:08;;;;;;;0.88;0.70;;;;;;;;;;4951586;28;20050;-68
2023/03/07 16:00:39;;;;;;;1.85;0.73;;;;;;;;;;4954423;28;20124;-69
2023/03/07 16:03:24;;;;;;;2.17;0.70;;;;;;;;;;4987156;28;20058;-67
2023/03/07 16:05:50;;;;;;;1.80;0.88;;;;;;;;;;4958577;28;20074;-68
2023/03/07 16:08:20;;;;;;;;;;;;;;;;;;4927560;28;20043;-69
2023/03/07 16:10:49;;;;;;;1.33;0.75;;;;;;;;;;4888206;29;19926;-69
2023/03/07 16:13:30;;;;;;;1.92;0.75;;;;;;;;;;4975875;28;20108;-69
2023/03/07 16:16:06;;;;;;;2.45;0.80;;;;;;;;;;4987222;28;20058;-69
2023/03/07 16:18:33;;;;;;;1.50;0.70;;;;;;;;;;4974984;28;20049;-69
2023/03/07 16:21:02;;;;;;;3.95;1.10;;;;;;;;;;5001177;28;20085;-69
2023/03/07 16:23:32;;;;;;;1.92;0.77;;;;;;;;;;4968090;28;20065;-69
2023/03/07 16:26:04;;;;;;;2.17;0.73;;;;;;;;;;4959869;28;20116;-69
2023/03/07 16:28:42;;;;;;;1.00;0.60;;;;;;;;;;4964262;28;20050;-70
2023/03/07 16:31:10;;;;;;;0.85;0.60;;;;;;;;;;4956248;28;20140;-69
2023/03/07 16:33:37;;;;;;;1.15;0.65;;;;;;;;;;4989103;28;20120;-69
2023/03/07 16:36:05;;;;;;;0.65;0.60;;;;;;;;;;4958928;28;20065;-69
2023/03/07 16:38:34;;;;;;;1.60;0.88;;;;;;;;;;4935053;28;20045;-68
2023/03/07 16:41:07;;;;;;;2.40;0.60;;;;;;;;;;4988709;28;20064;-68
2023/03/07 16:43:40;;;;;;;;;;;;;;;;;;4996721;28;20148;-69
2023/03/07 16:46:16;;;;;;;1.90;0.95;;;;;;;;;;4972530;28;19930;-69
2023/03/07 16:48:48;;;;;;;1.40;0.68;;;;;;;;;;4951096;28;20446;-69
2023/03/07 16:51:16;;;;;;;1.90;0.65;;;;;;;;;;4993231;28;20088;-68
2023/03/07 16:53:44;;;;;;;0.65;0.55;;;;;;;;;;4992150;28;20057;-68
2023/03/07 16:56:13;;;;;;;3.72;1.00;;;;;;;;;;4999871;28;20050;-68
2023/03/07 16:58:42;;;;;;;4.63;0.73;;;;;;;;;;4938898;28;20070;-68
2023/03/07 17:01:12;;;;;;;2.15;0.88;;;;;;;;;;4913188;28;20055;-68
2023/03/07 17:03:39;;;;;;;3.13;0.82;;;;;;;;;;4913513;28;20332;-68